Time;durP1;ratioP1;P1;durP2;ratioP2;P2;SDS_P1;SDS_P2;PMS_P1;PMS_P2;Temp;Humidity;BMP_temperature;BMP_pressure;BME280_temperature;BME280_humidity;BME280_pressure;Samples;Min_cycle;Max_cycle;Signal;HPM_P1;HPM_P2
2022/05/30 00:00:41;;;;;;;4.60;2.05;;;;;;;14.03;58.18;100089.79;1726052;82;21021;-70
2022/05/30 00:03:08;;;;;;;5.87;2.25;;;;;;;14.02;58.69;100088.06;1713794;83;22183;-70
2022/05/30 00:05:36;;;;;;;4.50;2.20;;;;;;;14.03;58.71;100088.91;1696677;83;21049;-70
2022/05/30 00:08:03;;;;;;;7.42;2.20;;;;;;;14.04;58.86;100090.64;1696589;82;21064;-70
2022/05/30 00:10:31;;;;;;;7.20;2.05;;;;;;;14.02;59.13;100088.06;1700857;83;21604;-70
2022/05/30 00:12:58;;;;;;;4.15;2.17;;;;;;;14.01;59.30;100082.84;1713720;83;21207;-70
2022/05/30 00:15:25;;;;;;;2.85;2.05;;;;;;;14.01;59.49;100092.98;1681414;83;21119;-70
2022/05/30 00:17:55;;;;;;;5.70;2.10;;;;;;;14.01;59.51;100098.28;1677405;84;21154;-70
2022/05/30 00:20:23;;;;;;;3.13;1.57;;;;;;;14.04;59.70;100094.61;1668907;84;21053;-70
2022/05/30 00:32:40;;;;;;;5.08;2.27;;;;;;;14.02;61.26;100070.00;1682741;84;21567;-69
2022/05/30 00:35:08;;;;;;;4.15;2.12;;;;;;;14.00;61.52;100063.92;1689666;83;21204;-70
2022/05/30 00:37:35;;;;;;;4.50;2.10;;;;;;;13.98;61.82;100060.02;1686955;83;21723;-71
2022/05/30 00:40:04;;;;;;;4.95;2.30;;;;;;;13.97;61.91;100066.27;1677326;84;21061;-70
2022/05/30 00:42:31;;;;;;;3.90;2.35;;;;;;;13.97;62.11;100066.27;1685648;83;21239;-70
2022/05/30 00:44:58;;;;;;;5.55;2.35;;;;;;;13.98;62.15;100072.41;1687714;84;21113;-70
2022/05/30 00:47:25;;;;;;;7.00;2.58;;;;;;;13.97;62.76;100076.86;1696435;84;21077;-70
2022/05/30 00:49:53;;;;;;;5.30;2.70;;;;;;;13.97;62.92;100069.39;1691462;84;21636;-69
2022/05/30 00:52:33;;;;;;;5.67;2.87;;;;;;;13.96;63.74;100067.19;1672924;84;21077;-70
2022/05/30 00:55:13;;;;;;;6.45;2.85;;;;;;;13.94;63.90;100063.80;1686961;83;21194;-69
2022/05/30 00:57:41;;;;;;;4.97;2.60;;;;;;;13.92;63.93;100069.63;1672524;84;21190;-71
2022/05/30 01:00:16;;;;;;;5.45;2.77;;;;;;;13.89;64.38;100070.25;1677657;84;21151;-69
2022/05/30 01:02:43;;;;;;;7.47;2.55;;;;;;;13.86;64.53;100071.27;1709174;81;21089;-69
2022/05/30 01:08:01;;;;;;;4.67;2.87;;;;;;;13.83;65.71;100062.16;1685163;83;21165;-70
2022/05/30 01:10:28;;;;;;;6.42;2.98;;;;;;;13.81;67.78;100060.91;1703588;83;21575;-70
2022/05/30 01:12:57;;;;;;;5.08;2.95;;;;;;;13.81;68.08;100038.89;1751915;81;22101;-69
2022/05/30 01:15:28;;;;;;;6.70;3.20;;;;;;;13.79;69.95;100020.91;1727546;81;21128;-70
2022/05/30 01:18:12;;;;;;;5.60;3.42;;;;;;;13.73;71.92;100024.70;1749808;81;21071;-69
2022/05/30 01:20:54;;;;;;;3.72;2.50;;;;;;;13.70;74.63;100022.70;1730222;81;21145;-69
2022/05/30 01:23:51;;;;;;;;;;;;;;;13.64;74.42;100024.73;1686883;83;21570;-70
2022/05/30 01:26:31;;;;;;;3.92;2.60;;;;;;;13.57;73.97;100018.05;1661029;85;20452;-70
2022/05/30 01:29:19;;;;;;;3.80;2.60;;;;;;;13.44;74.80;100014.31;1638424;86;21167;-69
2022/05/30 01:31:47;;;;;;;6.97;2.70;;;;;;;13.36;76.26;100008.54;1659542;84;21554;-70
2022/05/30 01:34:14;;;;;;;5.90;2.95;;;;;;;13.27;76.81;100001.03;1694993;83;21149;-69
2022/05/30 01:36:41;;;;;;;5.62;2.70;;;;;;;13.18;76.86;99974.14;1708025;83;21022;-69
2022/05/30 01:39:07;;;;;;;7.55;2.50;;;;;;;13.08;78.31;99972.88;1685570;84;21105;-70
2022/05/30 01:41:41;;;;;;;5.47;2.92;;;;;;;12.99;78.85;99977.30;1697853;84;21091;-71
2022/05/30 01:44:08;;;;;;;5.03;2.83;;;;;;;12.89;79.93;99978.69;1695770;84;21090;-70
2022/05/30 01:46:35;;;;;;;5.78;2.95;;;;;;;12.79;82.37;99977.81;1651385;84;21158;-70
2022/05/30 01:49:04;;;;;;;6.37;3.20;;;;;;;12.72;81.39;99981.69;1686548;84;21075;-69
2022/05/30 01:51:31;;;;;;;5.20;3.17;;;;;;;12.64;83.22;99982.52;1686853;84;21113;-70
2022/05/30 01:53:59;;;;;;;8.73;3.02;;;;;;;12.59;83.89;99979.24;1697297;84;21654;-69
2022/05/30 01:56:35;;;;;;;8.15;3.25;;;;;;;12.55;84.30;99971.06;1687216;84;21461;-69
2022/05/30 01:59:01;;;;;;;6.33;3.30;;;;;;;12.48;88.11;99973.14;1681388;84;21211;-70
2022/05/30 02:01:46;;;;;;;5.78;3.40;;;;;;;12.46;88.96;99974.98;1681968;84;21079;-69
2022/05/30 02:04:15;;;;;;;6.72;3.50;;;;;;;12.43;88.57;99983.54;1686405;84;21587;-70
2022/05/30 02:06:41;;;;;;;10.95;3.27;;;;;;;12.42;89.72;99988.41;1699600;84;22144;-69
2022/05/30 02:09:08;;;;;;;5.08;3.55;;;;;;;12.41;89.89;99992.00;1681316;84;21146;-70
2022/05/30 02:11:35;;;;;;;6.55;3.77;;;;;;;12.39;91.45;99987.63;1694293;83;21217;-70
2022/05/30 02:14:21;;;;;;;7.97;3.55;;;;;;;12.38;91.43;99985.92;1702284;83;21119;-69
2022/05/30 02:17:00;;;;;;;8.30;3.77;;;;;;;12.37;91.70;99992.12;1707455;83;21068;-69
2022/05/30 02:19:38;;;;;;;8.68;3.72;;;;;;;12.39;92.24;99992.91;1701073;83;21082;-69
2022/05/30 02:22:16;;;;;;;7.90;3.62;;;;;;;12.39;92.37;99998.19;1723152;82;21021;-71
2022/05/30 02:24:42;;;;;;;5.90;3.35;;;;;;;12.44;92.59;99998.44;1718388;82;21211;-69
2022/05/30 02:27:12;;;;;;;5.20;3.90;;;;;;;12.46;93.33;99986.03;1725340;83;21046;-69
2022/05/30 02:29:41;;;;;;;8.88;4.22;;;;;;;12.49;94.62;99982.79;1693067;83;21072;-69
2022/05/30 02:32:08;;;;;;;7.60;4.50;;;;;;;12.53;95.46;99984.80;1715932;81;21564;-70
2022/05/30 02:37:22;;;;;;;8.75;4.08;;;;;;;12.59;96.77;99977.92;1710170;83;21167;-68
2022/05/30 02:39:50;;;;;;;6.95;4.22;;;;;;;12.66;96.47;99978.48;1725178;83;21076;-69
2022/05/30 02:42:35;;;;;;;7.55;4.05;;;;;;;12.69;96.76;99971.25;1725559;83;21045;-70
2022/05/30 02:45:05;;;;;;;7.62;4.65;;;;;;;12.73;97.19;99970.17;1719747;83;21065;-71
2022/05/30 02:49:17;;;;;;;6.53;4.53;;;;;;;12.82;97.63;99954.82;1796743;79;22716;-70
2022/05/30 02:51:44;;;;;;;14.55;4.92;;;;;;;12.82;98.65;99961.42;1756389;80;21552;-70
2022/05/30 02:54:13;;;;;;;7.20;4.80;;;;;;;12.85;98.23;99965.23;1756217;81;22057;-70
2022/05/30 02:56:42;;;;;;;6.15;4.28;;;;;;;12.88;98.24;99966.39;1720603;83;21473;-70
2022/05/30 02:59:09;;;;;;;9.00;4.75;;;;;;;12.92;99.83;99974.56;1722823;83;21045;-70
2022/05/30 03:01:38;;;;;;;6.78;4.95;;;;;;;12.96;99.77;99974.34;1721253;83;21117;-70
2022/05/30 03:04:05;;;;;;;6.70;4.58;;;;;;;13.00;99.67;99975.05;1714815;83;21056;-71
2022/05/30 03:06:31;;;;;;;6.85;4.42;;;;;;;13.03;99.70;99982.83;1707530;84;21098;-70
2022/05/30 03:08:58;;;;;;;8.45;4.35;;;;;;;13.06;100.00;99997.20;1707180;84;21052;-70
2022/05/30 03:11:30;;;;;;;8.90;4.83;;;;;;;13.08;100.00;99999.31;1703822;84;20962;-69
2022/05/30 03:13:56;;;;;;;10.82;5.30;;;;;;;13.11;100.00;100000.50;1707162;84;21111;-69
2022/05/30 03:16:23;;;;;;;11.33;5.40;;;;;;;13.10;100.00;99988.20;1707286;84;21108;-69
2022/05/30 03:18:51;;;;;;;6.80;4.65;;;;;;;13.10;100.00;100000.09;1707491;84;21252;-69
2022/05/30 03:21:18;;;;;;;7.20;5.42;;;;;;;13.08;100.00;100009.88;1707163;84;21112;-71
2022/05/30 03:23:44;;;;;;;10.48;5.00;;;;;;;13.06;100.00;100009.09;1679013;84;21331;-69
2022/05/30 03:26:13;;;;;;;8.45;5.37;;;;;;;13.06;100.00;100006.45;1707342;83;21676;-70
2022/05/30 03:28:40;;;;;;;7.42;5.60;;;;;;;13.06;100.00;100014.39;1707345;84;21069;-68
2022/05/30 03:31:07;;;;;;;7.55;5.72;;;;;;;13.06;100.00;100022.31;1707527;84;21220;-70
2022/05/30 03:33:37;;;;;;;7.03;5.45;;;;;;;13.08;100.00;100027.55;1707388;84;21035;-70
2022/05/30 03:36:13;;;;;;;11.75;5.78;;;;;;;13.10;100.00;100018.60;1707541;84;21084;-69
2022/05/30 03:38:59;;;;;;;6.95;5.35;;;;;;;13.13;100.00;100026.38;1707645;84;21056;-70
2022/05/30 03:41:44;;;;;;;8.78;5.45;;;;;;;13.15;100.00;100026.30;1707439;84;21627;-69
2022/05/30 03:44:12;;;;;;;12.35;5.95;;;;;;;13.14;100.00;100014.88;1706395;84;21157;-69
2022/05/30 03:46:39;;;;;;;7.65;5.80;;;;;;;13.16;100.00;100015.66;1707517;84;21498;-71
2022/05/30 03:49:07;;;;;;;7.90;5.53;;;;;;;13.19;100.00;100007.56;1696885;83;21057;-69
2022/05/30 03:51:34;;;;;;;10.38;5.90;;;;;;;13.22;100.00;100002.12;1694642;84;21049;-70
2022/05/30 03:54:01;;;;;;;7.25;4.95;;;;;;;13.26;100.00;99999.34;1694750;84;21074;-70
2022/05/30 03:56:27;;;;;;;7.78;5.00;;;;;;;13.29;100.00;99995.23;1694644;84;21119;-69
2022/05/30 03:58:54;;;;;;;6.42;5.28;;;;;;;13.34;100.00;99981.31;1694895;84;21077;-70
2022/05/30 04:01:20;;;;;;;6.60;5.37;;;;;;;13.39;100.00;99985.92;1694363;84;21077;-70
2022/05/30 04:03:47;;;;;;;9.63;5.70;;;;;;;13.47;100.00;99979.76;1694316;84;21057;-71
2022/05/30 04:06:14;;;;;;;11.53;6.90;;;;;;;13.56;100.00;99973.14;1694444;84;21077;-70
2022/05/30 04:08:42;;;;;;;7.80;6.17;;;;;;;13.63;100.00;99975.38;1694230;84;21702;-70
2022/05/30 04:11:26;;;;;;;11.25;7.12;;;;;;;13.69;100.00;99975.98;1679080;84;21132;-70
2022/05/30 04:14:11;;;;;;;11.80;7.60;;;;;;;13.85;100.00;99974.27;1666314;86;21062;-70
2022/05/30 04:16:45;;;;;;;11.05;7.20;;;;;;;13.97;100.00;99974.08;1665454;86;21128;-69
2022/05/30 04:19:13;;;;;;;8.35;6.80;;;;;;;14.09;100.00;99973.89;1666248;86;21581;-70
2022/05/30 04:21:40;;;;;;;14.00;7.83;;;;;;;14.17;100.00;99959.74;1666127;86;21892;-72
2022/05/30 04:24:08;;;;;;;10.85;7.40;;;;;;;14.22;100.00;99947.13;1666215;85;21120;-69
2022/05/30 04:26:44;;;;;;;11.43;7.55;;;;;;;14.27;100.00;99962.30;1664271;86;21026;-70
2022/05/30 04:29:12;;;;;;;9.25;6.35;;;;;;;14.32;100.00;99954.94;1666061;86;21114;-71
2022/05/30 04:32:00;;;;;;;9.58;6.85;;;;;;;14.36;100.00;99980.33;1633343;86;21628;-70
2022/05/30 04:34:26;;;;;;;15.80;7.65;;;;;;;14.42;100.00;99990.59;1666282;86;21117;-71
2022/05/30 04:36:53;;;;;;;17.62;7.47;;;;;;;14.48;100.00;99994.69;1666342;86;21089;-70
2022/05/30 04:39:19;;;;;;;7.65;5.90;;;;;;;14.52;100.00;99992.73;1666185;86;21097;-70
2022/05/30 04:41:48;;;;;;;7.80;5.75;;;;;;;14.55;100.00;99989.94;1662260;86;21081;-70
2022/05/30 04:44:16;;;;;;;9.90;5.33;;;;;;;14.57;100.00;99981.44;1654668;86;21113;-71
2022/05/30 04:46:55;;;;;;;8.50;6.30;;;;;;;14.53;100.00;99979.86;1614903;86;21644;-71
2022/05/30 04:49:22;;;;;;;8.85;5.62;;;;;;;14.49;100.00;99969.89;1653424;85;21106;-70
2022/05/30 04:51:49;;;;;;;7.58;5.03;;;;;;;14.54;100.00;99961.68;1682111;85;21519;-69
2022/05/30 04:54:17;;;;;;;7.33;5.50;;;;;;;14.53;100.00;99971.91;1681823;85;21083;-69
2022/05/30 04:56:52;;;;;;;8.53;6.03;;;;;;;14.48;100.00;99980.96;1679396;85;21134;-70
2022/05/30 04:59:21;;;;;;;8.35;5.72;;;;;;;14.44;100.00;99978.09;1681354;85;21763;-70
2022/05/30 05:01:54;;;;;;;7.67;5.37;;;;;;;14.40;100.00;99995.13;1681852;85;21067;-71
2022/05/30 05:04:20;;;;;;;6.70;6.00;;;;;;;14.36;100.00;99999.35;1682220;85;21082;-69
2022/05/30 05:06:48;;;;;;;8.48;5.67;;;;;;;14.31;100.00;100001.38;1681599;85;21090;-71
2022/05/30 05:09:32;;;;;;;7.22;5.47;;;;;;;14.27;100.00;100008.64;1681736;85;21067;-72
2022/05/30 05:12:11;;;;;;;6.92;5.03;;;;;;;14.30;100.00;100019.06;1647474;86;21164;-70
2022/05/30 05:14:57;;;;;;;12.93;5.83;;;;;;;14.26;100.00;100032.08;1748058;82;21006;-70
2022/05/30 05:17:43;;;;;;;6.30;5.28;;;;;;;14.26;100.00;100034.73;1748424;82;21121;-71
2022/05/30 05:20:11;;;;;;;8.08;5.05;;;;;;;14.27;100.00;100036.45;1748207;82;21017;-70
2022/05/30 05:22:38;;;;;;;7.15;5.45;;;;;;;14.26;100.00;100054.16;1720696;82;21541;-70
2022/05/30 05:25:07;;;;;;;6.17;4.37;;;;;;;14.26;100.00;100065.19;1748331;82;21711;-71
2022/05/30 05:27:35;;;;;;;11.85;5.08;;;;;;;14.25;100.00;100074.09;1741252;82;21481;-70
2022/05/30 05:30:06;;;;;;;6.08;4.97;;;;;;;14.24;100.00;100078.98;1748126;82;21072;-71
2022/05/30 05:32:34;;;;;;;7.10;5.47;;;;;;;14.19;100.00;100083.67;1748602;82;21073;-72
2022/05/30 05:35:00;;;;;;;8.75;4.35;;;;;;;14.16;100.00;100082.05;1747933;82;21093;-71
2022/05/30 05:37:28;;;;;;;8.40;5.10;;;;;;;14.18;100.00;100097.86;1747988;82;21130;-72
2022/05/30 05:39:59;;;;;;;6.15;5.12;;;;;;;14.20;100.00;100089.38;1734694;82;21372;-70
2022/05/30 05:42:26;;;;;;;6.80;4.70;;;;;;;14.22;100.00;100095.45;1747830;82;21058;-71
2022/05/30 05:44:53;;;;;;;5.17;4.62;;;;;;;14.21;100.00;100084.45;1747954;82;21072;-72
2022/05/30 05:47:20;;;;;;;6.42;5.28;;;;;;;14.21;100.00;100085.77;1748076;82;21568;-71
2022/05/30 05:49:46;;;;;;;7.42;5.60;;;;;;;14.20;100.00;100088.05;1747818;81;21924;-71
2022/05/30 05:52:13;;;;;;;11.12;5.60;;;;;;;14.20;100.00;100084.92;1748088;82;21557;-71
2022/05/30 05:54:40;;;;;;;10.40;6.40;;;;;;;14.20;100.00;100073.01;1748181;82;21025;-70
2022/05/30 05:57:09;;;;;;;7.67;6.00;;;;;;;14.20;100.00;100073.48;1748430;82;21233;-71
2022/05/30 05:59:37;;;;;;;9.08;6.17;;;;;;;14.19;100.00;100064.66;1747870;82;21023;-70
2022/05/30 06:02:05;;;;;;;8.33;4.62;;;;;;;14.16;100.00;100065.30;1748180;82;21326;-69
2022/05/30 06:04:32;;;;;;;6.00;5.17;;;;;;;14.13;100.00;100062.83;1748097;82;21112;-71
2022/05/30 06:07:04;;;;;;;8.73;6.20;;;;;;;14.10;100.00;100065.62;1747977;82;21521;-71
2022/05/30 06:09:49;;;;;;;8.10;5.30;;;;;;;14.08;100.00;100063.08;1746148;82;21460;-71
2022/05/30 06:12:20;;;;;;;;;;;;;;;14.10;100.00;100068.27;1725433;82;21056;-71
2022/05/30 06:14:48;;;;;;;10.58;6.00;;;;;;;14.12;100.00;100071.69;1718097;83;20339;-71
2022/05/30 07:36:32;;;;;;;13.58;6.72;;;;;;;13.68;100.00;99920.05;1704883;84;21046;-71
2022/05/30 07:39:00;;;;;;;21.42;8.00;;;;;;;13.68;100.00;99911.63;1702327;83;21075;-72
2022/05/30 07:41:46;;;;;;;19.57;9.20;;;;;;;13.70;100.00;99899.65;1704887;84;21068;-71
2022/05/30 07:44:32;;;;;;;19.73;9.38;;;;;;;13.71;100.00;99894.73;1702331;83;21163;-71
2022/05/30 07:47:11;;;;;;;16.97;7.97;;;;;;;13.71;100.00;99889.44;1629702;87;21083;-71
2022/05/30 07:49:40;;;;;;;17.50;8.05;;;;;;;13.74;100.00;99884.00;1711007;83;21577;-71
2022/05/30 07:52:23;;;;;;;17.00;7.30;;;;;;;13.79;100.00;99889.89;1714781;83;21548;-71
2022/05/30 07:54:52;;;;;;;11.10;6.35;;;;;;;13.83;100.00;99898.91;1716090;83;21048;-71
2022/05/30 07:57:50;;;;;;;13.62;6.80;;;;;;;13.84;100.00;99899.27;1717886;83;21178;-71
2022/05/30 07:59:49;;;;;;;10.32;6.75;;;;;;;13.88;100.00;99889.39;1714390;83;21568;-71
2022/05/30 08:02:16;;;;;;;11.95;6.33;;;;;;;13.91;100.00;99874.66;1718324;83;21072;-70
2022/05/30 08:04:43;;;;;;;10.32;6.75;;;;;;;14.00;100.00;99880.77;1718230;83;21010;-71
2022/05/30 08:07:28;;;;;;;9.03;5.67;;;;;;;14.11;100.00;99889.92;1718139;83;21037;-71
2022/05/30 08:10:03;;;;;;;9.75;6.10;;;;;;;14.19;100.00;99882.39;1718104;83;21193;-72
2022/05/30 08:12:33;;;;;;;8.53;5.80;;;;;;;14.27;100.00;99882.83;1717769;83;21049;-70
2022/05/30 08:15:02;;;;;;;11.55;5.75;;;;;;;14.34;100.00;99886.84;1714267;83;21069;-72
2022/05/30 08:17:32;;;;;;;8.33;5.55;;;;;;;14.40;100.00;99885.63;1715315;83;21089;-71
2022/05/30 08:20:01;;;;;;;11.43;5.55;;;;;;;14.43;100.00;99908.84;1718514;83;21037;-71
2022/05/30 08:22:34;;;;;;;8.58;5.62;;;;;;;14.47;100.00;99920.98;1718266;83;26722;-71
2022/05/30 08:25:05;;;;;;;8.65;6.25;;;;;;;14.48;100.00;99924.00;1718414;83;21637;-71
2022/05/30 08:27:32;;;;;;;;;;;;;;;14.48;100.00;99921.34;1720800;83;21037;-71
2022/05/30 08:30:01;;;;;;;8.43;5.83;;;;;;;14.50;100.00;99927.05;1718547;83;20177;-71
2022/05/30 08:32:34;;;;;;;16.62;6.58;;;;;;;14.50;100.00;99925.72;1718563;83;21120;-72
2022/05/30 08:35:19;;;;;;;13.38;5.45;;;;;;;14.51;100.00;99931.39;1718450;83;21141;-71
2022/05/30 08:37:46;;;;;;;11.88;6.20;;;;;;;14.55;100.00;99937.79;1718133;83;21116;-72
2022/05/30 08:43:13;;;;;;;11.25;6.17;;;;;;;14.64;100.00;99925.82;1721983;82;21272;-71
2022/05/30 08:45:42;;;;;;;10.70;7.05;;;;;;;14.72;100.00;99930.67;1745999;82;21314;-70
2022/05/30 08:48:22;;;;;;;16.80;7.22;;;;;;;14.78;100.00;99939.13;1747101;82;21150;-72
2022/05/30 08:51:04;;;;;;;12.65;7.53;;;;;;;14.84;100.00;99964.45;1734954;81;21137;-71
2022/05/30 08:54:11;;;;;;;10.75;6.50;;;;;;;14.91;100.00;99980.39;1694026;82;21030;-71
2022/05/30 08:56:40;;;;;;;12.05;6.30;;;;;;;14.94;100.00;99989.95;1734256;82;21056;-71
2022/05/30 08:59:46;;;;;;;11.55;6.72;;;;;;;14.93;100.00;99986.91;1734216;82;21070;-71
2022/05/30 09:02:26;;;;;;;14.18;7.20;;;;;;;14.97;100.00;99977.84;1734216;82;21082;-72
2022/05/30 09:05:18;;;;;;;13.20;8.20;;;;;;;14.99;100.00;99964.02;1734157;81;21082;-72
2022/05/30 09:07:51;;;;;;;10.45;7.87;;;;;;;15.01;100.00;99952.38;1734116;81;21502;-72
2022/05/30 09:10:31;;;;;;;13.15;7.72;;;;;;;15.04;100.00;99938.93;1734028;82;21608;-72
2022/05/30 09:13:30;;;;;;;12.88;7.35;;;;;;;15.06;100.00;99940.18;1734334;82;21616;-72
2022/05/30 09:16:33;;;;;;;10.80;7.58;;;;;;;15.08;100.00;99934.31;1733839;82;21101;-72
2022/05/30 09:19:04;;;;;;;14.78;7.72;;;;;;;15.12;100.00;99947.78;1733462;82;21046;-71
2022/05/30 09:21:34;;;;;;;15.05;7.83;;;;;;;15.18;100.00;99955.36;1737751;82;21062;-72
2022/05/30 09:24:02;;;;;;;15.70;8.63;;;;;;;15.23;100.00;99951.98;1734243;82;21046;-72
2022/05/30 09:26:33;;;;;;;16.23;7.45;;;;;;;15.27;100.00;99954.81;1733921;82;21037;-71
2022/05/30 09:29:12;;;;;;;13.28;6.67;;;;;;;15.33;100.00;99951.44;1732857;82;21154;-71
2022/05/30 09:31:59;;;;;;;14.50;7.80;;;;;;;15.34;100.00;99943.84;1731022;82;21018;-71
2022/05/30 09:34:47;;;;;;;11.10;7.12;;;;;;;15.34;100.00;99937.22;1734252;82;21054;-72
2022/05/30 09:37:41;;;;;;;15.72;8.83;;;;;;;15.29;100.00;99933.52;1734179;82;21046;-71
2022/05/30 09:40:09;;;;;;;14.43;8.13;;;;;;;15.30;100.00;99938.73;1732385;82;21483;-70
2022/05/30 09:42:40;;;;;;;17.90;9.13;;;;;;;15.34;100.00;99933.23;1713569;82;21112;-71
2022/05/30 09:45:14;;;;;;;12.95;8.30;;;;;;;15.40;100.00;99927.57;1711995;82;21086;-70
2022/05/30 09:48:08;;;;;;;14.93;9.20;;;;;;;15.44;100.00;99916.68;1734023;82;21046;-70
2022/05/30 09:50:44;;;;;;;16.25;7.45;;;;;;;15.66;100.00;99916.20;1738928;81;21014;-71
2022/05/30 09:53:13;;;;;;;14.10;7.75;;;;;;;15.83;100.00;99910.39;1742402;82;21113;-71
2022/05/30 09:55:49;;;;;;;14.18;7.50;;;;;;;15.98;100.00;99912.06;1713013;82;21139;-71
2022/05/30 09:58:17;;;;;;;14.93;8.23;;;;;;;16.11;100.00;99909.02;1713433;82;21503;-71
2022/05/30 10:00:55;;;;;;;12.07;7.58;;;;;;;16.21;100.00;99919.05;1740539;82;21129;-71
2022/05/30 10:03:32;;;;;;;16.57;8.40;;;;;;;16.28;100.00;99911.06;1742394;82;21097;-72
2022/05/30 10:06:21;;;;;;;12.85;7.62;;;;;;;16.32;100.00;99907.27;1742537;82;21214;-70
2022/05/30 10:08:48;;;;;;;17.25;9.73;;;;;;;16.30;100.00;99899.87;1742425;82;21151;-72
2022/05/30 10:11:32;;;;;;;15.90;8.88;;;;;;;16.28;100.00;99911.06;1741454;82;21038;-71
2022/05/30 10:14:18;;;;;;;18.50;8.73;;;;;;;16.24;100.00;99908.22;1742090;82;20995;-71
2022/05/30 10:16:48;;;;;;;14.13;8.38;;;;;;;16.24;100.00;99909.55;1739157;82;21049;-71
2022/05/30 10:19:26;;;;;;;13.10;8.85;;;;;;;16.26;100.00;99912.97;1742080;82;21030;-72
2022/05/30 10:28:52;;;;;;;13.05;8.33;;;;;;;16.37;100.00;99879.91;1742376;82;21046;-71
2022/05/30 10:32:02;;;;;;;17.80;8.83;;;;;;;16.43;100.00;99888.83;1741178;82;21041;-71
2022/05/30 10:34:49;;;;;;;15.03;7.92;;;;;;;16.47;100.00;99882.36;1742188;81;21042;-72
2022/05/30 10:37:47;;;;;;;15.88;8.40;;;;;;;16.58;100.00;99874.99;1741752;82;21141;-71
2022/05/30 10:40:37;;;;;;;17.95;8.95;;;;;;;16.65;100.00;99881.61;1742331;82;21538;-71
2022/05/30 10:43:38;;;;;;;16.25;8.48;;;;;;;16.75;100.00;99875.22;1742128;82;21097;-70
2022/05/30 10:46:15;;;;;;;12.13;7.78;;;;;;;16.86;100.00;99860.73;1742108;82;21609;-71
2022/05/30 10:48:56;;;;;;;13.83;9.20;;;;;;;16.88;100.00;99861.48;1742097;81;21065;-70
2022/05/30 10:51:31;;;;;;;15.78;8.95;;;;;;;16.90;100.00;99855.59;1735310;82;21180;-71
2022/05/30 10:54:24;;;;;;;15.00;8.60;;;;;;;16.95;100.00;99853.95;1733851;81;21413;-72
2022/05/30 10:57:16;;;;;;;12.25;7.50;;;;;;;17.01;100.00;99844.72;1734444;82;21479;-71
2022/05/30 10:59:51;;;;;;;12.90;8.18;;;;;;;17.10;100.00;99852.91;1734094;82;21019;-71
2022/05/30 11:02:39;;;;;;;15.68;7.97;;;;;;;17.21;100.00;99853.52;1713144;82;21078;-72
2022/05/30 11:05:17;;;;;;;14.50;8.48;;;;;;;17.23;100.00;99836.97;1734078;82;22267;-71
2022/05/30 11:08:26;;;;;;;13.32;8.55;;;;;;;17.23;100.00;99850.27;1733991;82;21041;-71
2022/05/30 11:11:17;;;;;;;16.82;9.33;;;;;;;17.25;100.00;99840.34;1734069;82;21042;-69
2022/05/30 11:13:59;;;;;;;14.60;7.97;;;;;;;17.26;100.00;99824.77;1713559;82;21574;-71
2022/05/30 11:16:42;;;;;;;12.23;8.90;;;;;;;17.28;100.00;99828.17;1732393;82;21089;-71
2022/05/30 11:20:00;;;;;;;18.70;9.03;;;;;;;17.32;100.00;99831.00;1734180;82;21135;-71
2022/05/30 11:22:48;;;;;;;13.48;8.13;;;;;;;17.31;100.00;99830.61;1733159;82;21723;-70
2022/05/30 11:25:19;;;;;;;14.45;9.18;;;;;;;17.29;100.00;99831.20;1734265;82;21015;-72
2022/05/30 11:28:11;;;;;;;17.60;8.58;;;;;;;17.30;100.00;99832.04;1706542;82;21067;-71
2022/05/30 11:30:52;;;;;;;14.10;8.78;;;;;;;17.29;100.00;99833.86;1733754;82;21510;-71
2022/05/30 11:33:49;;;;;;;14.93;8.78;;;;;;;17.31;100.00;99834.61;1734747;82;21087;-71
2022/05/30 11:36:39;;;;;;;16.45;9.20;;;;;;;17.35;100.00;99835.26;1734382;82;21058;-73
2022/05/30 11:39:23;;;;;;;14.10;8.87;;;;;;;17.42;100.00;99831.69;1735045;82;21116;-72
2022/05/30 11:42:04;;;;;;;22.10;10.43;;;;;;;17.43;100.00;99823.58;1734207;82;21042;-71
2022/05/30 11:44:45;;;;;;;17.80;9.70;;;;;;;17.43;100.00;99822.73;1734179;82;21120;-71
2022/05/30 11:47:47;;;;;;;16.02;10.35;;;;;;;17.44;100.00;99820.42;1734128;82;21222;-72
2022/05/30 11:50:56;;;;;;;20.95;10.08;;;;;;;17.46;100.00;99814.52;1736751;81;21084;-72
2022/05/30 11:53:34;;;;;;;13.90;8.83;;;;;;;17.53;100.00;99819.78;1747585;82;21593;-71
2022/05/30 11:56:29;;;;;;;16.67;8.68;;;;;;;17.63;100.00;99827.50;1748061;82;21052;-71
2022/05/30 11:59:30;;;;;;;15.98;8.38;;;;;;;17.72;100.00;99824.67;1748364;82;21006;-70
2022/05/30 12:01:58;;;;;;;16.75;9.20;;;;;;;17.77;100.00;99814.04;1716088;82;21116;-72
2022/05/30 12:05:01;;;;;;;17.10;9.20;;;;;;;17.82;100.00;99818.58;1748119;82;21013;-70
2022/05/30 12:07:54;;;;;;;13.53;8.40;;;;;;;17.87;100.00;99817.41;1747633;82;20997;-71
2022/05/30 12:11:02;;;;;;;10.80;7.97;;;;;;;17.95;100.00;99815.89;1747876;82;21057;-71
2022/05/30 12:14:16;;;;;;;17.00;8.38;;;;;;;18.07;99.87;99822.62;1748095;82;21108;-71
2022/05/30 12:17:13;;;;;;;13.35;7.78;;;;;;;18.19;99.84;99825.22;1747890;82;21605;-70
2022/05/30 12:25:52;;;;;;;12.90;7.70;;;;;;;18.50;96.27;99832.30;1747782;82;22190;-70
2022/05/30 12:28:34;;;;;;;15.50;7.95;;;;;;;18.53;96.23;99837.88;1748164;82;21129;-69
2022/05/30 12:31:04;;;;;;;9.40;7.22;;;;;;;18.51;96.53;99831.33;1747934;82;21969;-70
2022/05/30 12:33:36;;;;;;;14.75;8.28;;;;;;;18.53;96.76;99832.06;1748203;82;21186;-70
2022/05/30 12:36:13;;;;;;;12.68;7.80;;;;;;;18.61;96.58;99831.48;1747987;82;21050;-70
2022/05/30 12:39:00;;;;;;;13.83;8.58;;;;;;;18.75;96.54;99829.09;1747785;82;21032;-70
2022/05/30 12:41:40;;;;;;;13.45;7.70;;;;;;;18.85;95.68;99834.16;1748039;82;21077;-71
2022/05/30 12:44:46;;;;;;;13.05;7.92;;;;;;;18.85;94.63;99831.48;1744956;82;21175;-70
2022/05/30 12:47:31;;;;;;;11.83;7.92;;;;;;;18.85;93.56;99836.82;1748012;82;21061;-71
2022/05/30 12:50:33;;;;;;;15.45;7.92;;;;;;;18.82;93.21;99829.06;1748180;82;21035;-72
2022/05/30 12:53:03;;;;;;;15.10;8.05;;;;;;;18.78;92.33;99829.77;1747968;82;21085;-72
2022/05/30 12:55:42;;;;;;;14.43;8.93;;;;;;;18.76;93.41;99828.15;1748282;82;21045;-70
2022/05/30 12:58:08;;;;;;;12.47;7.92;;;;;;;18.75;94.16;99829.09;1746954;82;21231;-71
2022/05/30 13:00:52;;;;;;;14.87;10.13;;;;;;;18.72;95.03;99841.34;1748537;82;21600;-70
2022/05/30 13:03:30;;;;;;;17.35;9.28;;;;;;;18.67;94.06;99833.69;1748191;82;21140;-71
2022/05/30 13:06:03;;;;;;;16.93;9.45;;;;;;;18.58;94.90;99835.23;1748208;81;21569;-71
2022/05/30 13:09:05;;;;;;;17.85;10.00;;;;;;;18.47;94.72;99832.51;1748213;82;21072;-71
2022/05/30 13:11:47;;;;;;;;;;;;;;;18.37;94.80;99828.35;1703545;83;21395;-71
2022/05/30 13:14:36;;;;;;;14.70;9.23;;;;;;;18.33;95.76;99828.70;1718216;83;20914;-70
2022/05/30 13:17:23;;;;;;;21.60;9.43;;;;;;;18.29;97.94;99828.09;1718487;83;21040;-71
2022/05/30 13:19:57;;;;;;;13.08;8.20;;;;;;;18.26;97.95;99816.78;1718118;83;21097;-70
2022/05/30 13:22:54;;;;;;;17.30;9.65;;;;;;;18.22;97.53;99818.36;1718172;83;21045;-73
2022/05/30 13:25:40;;;;;;;17.10;8.78;;;;;;;18.17;97.48;99819.64;1718272;83;22101;-70
2022/05/30 13:28:13;;;;;;;16.23;9.00;;;;;;;18.14;99.38;99827.88;1716625;83;21545;-71
2022/05/30 13:30:40;;;;;;;;;;;;;;;18.12;100.00;99820.47;1720935;83;21021;-71
2022/05/30 13:35:53;;;;;;;16.12;8.90;;;;;;;18.07;100.00;99827.95;1717497;83;21080;-70
2022/05/30 13:38:24;;;;;;;13.72;8.68;;;;;;;18.08;100.00;99821.16;1718254;83;21086;-71
2022/05/30 13:40:51;;;;;;;19.25;9.73;;;;;;;18.06;100.00;99815.12;1718237;83;21112;-71
2022/05/30 13:43:23;;;;;;;16.73;8.73;;;;;;;18.06;100.00;99818.24;1718192;83;21593;-72
2022/05/30 13:45:51;;;;;;;16.15;9.83;;;;;;;18.05;100.00;99814.73;1716390;83;21097;-70
2022/05/30 13:48:18;;;;;;;16.05;9.83;;;;;;;18.07;100.00;99814.14;1718406;83;21053;-71
2022/05/30 13:50:55;;;;;;;17.32;9.93;;;;;;;18.11;100.00;99812.97;1718385;83;21128;-70
2022/05/30 13:53:28;;;;;;;15.53;10.03;;;;;;;18.12;100.00;99814.65;1713947;83;21021;-70
2022/05/30 13:56:01;;;;;;;17.32;10.08;;;;;;;18.13;100.00;99817.70;1718360;83;21040;-71